首页
METAR-TAF:

METAR-TAF

机场 :

夏延, 怀俄明州, 美国

纬度: 41-09-28N, 经度: 104-48-25W, 海拔: 1876米

当前天气观测

该预报发布于54分钟前的02:53 UTC
风速8节,风向南转西南
温度 -1°C
湿度 46%
气压 1024 hPa
能見度: 16.1公里
天空无云

METAR: KCYS 210253Z 21008KT 10SM CLR M01/M11 A3023 RMK AO2 SLP279 T10111111 58008 $

时间: 20:47 (03:47 UTC)

预报

该预报发布于4小时和13分钟前的23:34 UTC
预报有效从21日的 00点(UTC)到 21日的 24点(UTC)
风速6节,风向
能見度: 10公里
天空无云
从 21日的 1500点(UTC)
风速12节,风向西,有时为22节阵风
能見度: 10公里
多云层高于3000英尺
阴天层高于10000英尺

TAF: KCYS 202334Z 2100/2124 19006KT P6SM SKC FM211500 27012G22KT P6SM BKN030 OVC100

超过4000个机场的气象观测和天气预报(METAR&TAF报告)。

可查询的气象台以黄色和红色小点在地图上表示。

将鼠标移到小点上方,可查看气象台名称。

然后点击查看天气观测和预报。

如需切换地图:点击带黑十字的绿色按钮放大地图;点击带横线的绿色按钮缩小地图;或者点击绿色箭头查看邻近地区的地图。


METAR-TAF: